sensor_id;sensor_type;location;lat;lon;timestamp;pressure;altitude;pressure_sealevel;temperature;humidity
76590;BME280;65471;55.908;37.880;2024-02-14T00:02:31;100827.53;;;-12.93;95.13
76590;BME280;65471;55.908;37.880;2024-02-14T00:04:58;100842.28;;;-12.92;95.14
76590;BME280;65471;55.908;37.880;2024-02-14T00:07:25;100836.31;;;-12.96;95.13
76590;BME280;65471;55.908;37.880;2024-02-14T00:09:53;100831.22;;;-12.99;95.31
76590;BME280;65471;55.908;37.880;2024-02-14T00:12:21;100832.13;;;-13.00;94.91
76590;BME280;65471;55.908;37.880;2024-02-14T00:14:48;100833.88;;;-13.00;94.91
76590;BME280;65471;55.908;37.880;2024-02-14T00:17:15;100821.22;;;-13.11;95.12
76590;BME280;65471;55.908;37.880;2024-02-14T00:19:42;100833.00;;;-13.01;95.03
76590;BME280;65471;55.908;37.880;2024-02-14T00:22:10;100824.59;;;-13.08;95.21
76590;BME280;65471;55.908;37.880;2024-02-14T00:24:37;100830.75;;;-13.10;94.98
76590;BME280;65471;55.908;37.880;2024-02-14T00:27:04;100837.59;;;-13.08;94.91
76590;BME280;65471;55.908;37.880;2024-02-14T00:29:32;100831.66;;;-13.11;94.70
76590;BME280;65471;55.908;37.880;2024-02-14T00:32:00;100834.25;;;-13.11;94.89
76590;BME280;65471;55.908;37.880;2024-02-14T00:34:29;100836.06;;;-13.13;94.85
76590;BME280;65471;55.908;37.880;2024-02-14T00:36:56;100836.25;;;-13.18;94.80
76590;BME280;65471;55.908;37.880;2024-02-14T00:39:23;100835.59;;;-13.25;94.92
76590;BME280;65471;55.908;37.880;2024-02-14T00:41:50;100839.09;;;-13.26;94.68
76590;BME280;65471;55.908;37.880;2024-02-14T00:44:19;100844.28;;;-13.26;94.79
76590;BME280;65471;55.908;37.880;2024-02-14T00:46:46;100844.34;;;-13.27;94.60
76590;BME280;65471;55.908;37.880;2024-02-14T00:49:14;100841.75;;;-13.27;94.77
76590;BME280;65471;55.908;37.880;2024-02-14T00:51:42;100841.75;;;-13.27;94.66
76590;BME280;65471;55.908;37.880;2024-02-14T00:54:09;100840.97;;;-13.29;94.97
76590;BME280;65471;55.908;37.880;2024-02-14T00:56:36;100830.69;;;-13.34;94.53
76590;BME280;65471;55.908;37.880;2024-02-14T00:59:03;100835.78;;;-13.31;94.60
76590;BME280;65471;55.908;37.880;2024-02-14T01:01:30;100834.91;;;-13.30;94.71
76590;BME280;65471;55.908;37.880;2024-02-14T01:03:57;100843.69;;;-13.34;94.78
76590;BME280;65471;55.908;37.880;2024-02-14T01:06:24;100853.22;;;-13.33;94.64
76590;BME280;65471;55.908;37.880;2024-02-14T01:08:51;100849.72;;;-13.32;94.62
76590;BME280;65471;55.908;37.880;2024-02-14T01:11:18;100842.81;;;-13.33;94.64
76590;BME280;65471;55.908;37.880;2024-02-14T01:13:46;100842.81;;;-13.33;94.50
76590;BME280;65471;55.908;37.880;2024-02-14T01:16:13;100849.00;;;-13.35;94.47
76590;BME280;65471;55.908;37.880;2024-02-14T01:18:41;100841.19;;;-13.35;94.55
76590;BME280;65471;55.908;37.880;2024-02-14T01:21:08;100850.75;;;-13.36;94.52
76590;BME280;65471;55.908;37.880;2024-02-14T01:23:35;100850.75;;;-13.36;94.62
76590;BME280;65471;55.908;37.880;2024-02-14T01:26:02;100855.97;;;-13.36;94.58
76590;BME280;65471;55.908;37.880;2024-02-14T01:28:29;100853.47;;;-13.39;94.40
76590;BME280;65471;55.908;37.880;2024-02-14T01:30:56;100863.94;;;-13.41;94.55
76590;BME280;65471;55.908;37.880;2024-02-14T01:33:23;100872.72;;;-13.45;94.30
76590;BME280;65471;55.908;37.880;2024-02-14T01:35:51;100874.47;;;-13.45;94.55
76590;BME280;65471;55.908;37.880;2024-02-14T01:38:18;100857.38;;;-13.52;94.52
76590;BME280;65471;55.908;37.880;2024-02-14T01:40:45;100874.53;;;-13.47;94.22
76590;BME280;65471;55.908;37.880;2024-02-14T01:43:12;100866.09;;;-13.53;94.57
76590;BME280;65471;55.908;37.880;2024-02-14T01:45:41;100884.97;;;-13.48;94.50
76590;BME280;65471;55.908;37.880;2024-02-14T01:48:22;100883.28;;;-13.49;94.51
76590;BME280;65471;55.908;37.880;2024-02-14T01:50:49;100881.59;;;-13.50;94.50
76590;BME280;65471;55.908;37.880;2024-02-14T01:53:18;100883.44;;;-13.54;94.40
76590;BME280;65471;55.908;37.880;2024-02-14T01:55:44;100887.91;;;-13.58;94.20
76590;BME280;65471;55.908;37.880;2024-02-14T01:58:12;100887.91;;;-13.58;94.28
76590;BME280;65471;55.908;37.880;2024-02-14T02:00:40;100894.16;;;-13.63;94.03
76590;BME280;65471;55.908;37.880;2024-02-14T02:03:07;100890.72;;;-13.65;94.11
76590;BME280;65471;55.908;37.880;2024-02-14T02:05:35;100894.28;;;-13.68;94.28
76590;BME280;65471;55.908;37.880;2024-02-14T02:08:02;100892.66;;;-13.70;94.14
76590;BME280;65471;55.908;37.880;2024-02-14T02:10:29;100896.19;;;-13.73;94.20
76590;BME280;65471;55.908;37.880;2024-02-14T02:13:17;100890.13;;;-13.74;94.29
76590;BME280;65471;55.908;37.880;2024-02-14T02:16:05;100897.28;;;-13.80;93.90
76590;BME280;65471;55.908;37.880;2024-02-14T02:18:54;100903.31;;;-13.80;94.13
76590;BME280;65471;55.908;37.880;2024-02-14T02:21:42;100903.47;;;-13.84;93.77
76590;BME280;65471;55.908;37.880;2024-02-14T02:24:13;100899.16;;;-13.85;94.00
76590;BME280;65471;55.908;37.880;2024-02-14T02:26:42;100910.44;;;-13.86;93.99
76590;BME280;65471;55.908;37.880;2024-02-14T02:29:30;100907.84;;;-13.86;93.83
76590;BME280;65471;55.908;37.880;2024-02-14T02:31:59;100906.97;;;-13.85;94.07
76590;BME280;65471;55.908;37.880;2024-02-14T02:34:26;100904.56;;;-13.92;94.06
76590;BME280;65471;55.908;37.880;2024-02-14T02:36:53;100918.34;;;-13.90;93.91
76590;BME280;65471;55.908;37.880;2024-02-14T02:39:39;100920.16;;;-13.92;93.84
76590;BME280;65471;55.908;37.880;2024-02-14T02:42:26;100900.88;;;-14.13;93.74
76590;BME280;65471;55.908;37.880;2024-02-14T02:45:13;100915.00;;;-13.93;93.67
76590;BME280;65471;55.908;37.880;2024-02-14T02:48:00;100921.09;;;-13.94;93.88
76590;BME280;65471;55.908;37.880;2024-02-14T02:50:48;100917.72;;;-13.98;93.91
76590;BME280;65471;55.908;37.880;2024-02-14T02:53:34;100926.59;;;-14.03;93.39
76590;BME280;65471;55.908;37.880;2024-02-14T02:56:21;100928.31;;;-14.04;93.96
76590;BME280;65471;55.908;37.880;2024-02-14T02:58:48;100934.38;;;-14.03;93.72
76590;BME280;65471;55.908;37.880;2024-02-14T03:01:15;100922.28;;;-14.04;93.77
76590;BME280;65471;55.908;37.880;2024-02-14T03:04:03;100932.63;;;-14.03;93.72
76590;BME280;65471;55.908;37.880;2024-02-14T03:06:50;100929.13;;;-14.02;93.66
76590;BME280;65471;55.908;37.880;2024-02-14T03:09:37;100931.81;;;-14.05;93.71
76590;BME280;65471;55.908;37.880;2024-02-14T03:12:23;100934.41;;;-14.05;93.74
76590;BME280;65471;55.908;37.880;2024-02-14T03:15:15;100921.59;;;-14.11;93.89
76590;BME280;65471;55.908;37.880;2024-02-14T03:17:47;100942.19;;;-14.05;93.72
76590;BME280;65471;55.908;37.880;2024-02-14T03:20:14;100941.47;;;-14.09;93.59
76590;BME280;65471;55.908;37.880;2024-02-14T03:22:44;100943.22;;;-14.11;93.75
76590;BME280;65471;55.908;37.880;2024-02-14T03:25:19;100945.03;;;-14.13;93.76
76590;BME280;65471;55.908;37.880;2024-02-14T03:27:57;100952.78;;;-14.11;93.59
76590;BME280;65471;55.908;37.880;2024-02-14T03:30:25;100958.09;;;-14.14;93.79
76590;BME280;65471;55.908;37.880;2024-02-14T03:32:52;100953.81;;;-14.17;93.54
76590;BME280;65471;55.908;37.880;2024-02-14T03:35:20;100957.25;;;-14.16;93.58
76590;BME280;65471;55.908;37.880;2024-02-14T03:37:49;100965.97;;;-14.17;93.46
76590;BME280;65471;55.908;37.880;2024-02-14T03:40:16;100953.19;;;-14.25;93.56
76590;BME280;65471;55.908;37.880;2024-02-14T03:42:44;100967.03;;;-14.25;93.73
76590;BME280;65471;55.908;37.880;2024-02-14T03:45:11;100965.41;;;-14.29;93.59
76590;BME280;65471;55.908;37.880;2024-02-14T03:47:39;100966.34;;;-14.31;93.50
76590;BME280;65471;55.908;37.880;2024-02-14T03:50:09;100965.50;;;-14.32;93.23
76590;BME280;65471;55.908;37.880;2024-02-14T03:52:36;100963.81;;;-14.33;93.45
76590;BME280;65471;55.908;37.880;2024-02-14T03:55:04;100973.38;;;-14.35;93.42
76590;BME280;65471;55.908;37.880;2024-02-14T03:57:33;100969.88;;;-14.34;93.44
76590;BME280;65471;55.908;37.880;2024-02-14T04:00:02;100979.47;;;-14.36;93.53
76590;BME280;65471;55.908;37.880;2024-02-14T04:02:34;100955.78;;;-14.56;93.43
76590;BME280;65471;55.908;37.880;2024-02-14T04:05:05;100979.72;;;-14.45;93.56
76590;BME280;65471;55.908;37.880;2024-02-14T04:07:34;100983.19;;;-14.45;93.12
76590;BME280;65471;55.908;37.880;2024-02-14T04:10:01;100963.53;;;-14.55;93.17
76590;BME280;65471;55.908;37.880;2024-02-14T04:12:33;100981.47;;;-14.46;93.29
76590;BME280;65471;55.908;37.880;2024-02-14T04:15:00;100985.06;;;-14.50;93.24
76590;BME280;65471;55.908;37.880;2024-02-14T04:17:31;100997.19;;;-14.50;93.15
76590;BME280;65471;55.908;37.880;2024-02-14T04:19:59;100992.09;;;-14.55;92.97
76590;BME280;65471;55.908;37.880;2024-02-14T04:22:26;100986.13;;;-14.57;93.14
76590;BME280;65471;55.908;37.880;2024-02-14T04:24:53;100984.50;;;-14.61;93.05
76590;BME280;65471;55.908;37.880;2024-02-14T04:27:20;100988.00;;;-14.62;92.92
76590;BME280;65471;55.908;37.880;2024-02-14T04:29:47;100994.94;;;-14.63;92.99
76590;BME280;65471;55.908;37.880;2024-02-14T04:32:15;101002.78;;;-14.64;92.79
76590;BME280;65471;55.908;37.880;2024-02-14T04:34:42;100961.00;;;-14.88;92.75
76590;BME280;65471;55.908;37.880;2024-02-14T04:37:11;101002.00;;;-14.68;92.92
76590;BME280;65471;55.908;37.880;2024-02-14T04:39:41;101003.78;;;-14.70;92.94
76590;BME280;65471;55.908;37.880;2024-02-14T04:42:09;101002.09;;;-14.71;92.72
76590;BME280;65471;55.908;37.880;2024-02-14T04:44:36;101006.47;;;-14.73;92.75
76590;BME280;65471;55.908;37.880;2024-02-14T04:47:03;101004.72;;;-14.72;92.90
76590;BME280;65471;55.908;37.880;2024-02-14T04:49:32;101006.56;;;-14.76;92.82
76590;BME280;65471;55.908;37.880;2024-02-14T04:51:59;101008.31;;;-14.78;92.83
76590;BME280;65471;55.908;37.880;2024-02-14T04:54:27;101016.94;;;-14.78;92.98
76590;BME280;65471;55.908;37.880;2024-02-14T04:56:55;101017.94;;;-14.82;92.88
76590;BME280;65471;55.908;37.880;2024-02-14T04:59:27;101022.28;;;-14.82;92.92
76590;BME280;65471;55.908;37.880;2024-02-14T05:01:54;101020.59;;;-14.85;92.91
76590;BME280;65471;55.908;37.880;2024-02-14T05:04:23;101017.25;;;-14.88;92.75
76590;BME280;65471;55.908;37.880;2024-02-14T05:06:51;101036.28;;;-14.89;93.10
76590;BME280;65471;55.908;37.880;2024-02-14T05:09:24;101033.75;;;-14.91;92.80
76590;BME280;65471;55.908;37.880;2024-02-14T05:11:51;101041.44;;;-14.88;92.71
76590;BME280;65471;55.908;37.880;2024-02-14T05:14:18;101041.41;;;-14.86;92.65
76590;BME280;65471;55.908;37.880;2024-02-14T05:16:45;101043.13;;;-14.85;92.69
76590;BME280;65471;55.908;37.880;2024-02-14T05:19:12;101047.50;;;-14.87;92.89
76590;BME280;65471;55.908;37.880;2024-02-14T05:21:40;101048.38;;;-14.88;92.84
76590;BME280;65471;55.908;37.880;2024-02-14T05:24:07;101052.75;;;-14.90;92.66
76590;BME280;65471;55.908;37.880;2024-02-14T05:26:35;101052.78;;;-14.92;92.82
76590;BME280;65471;55.908;37.880;2024-02-14T05:29:02;101054.50;;;-14.91;92.67
76590;BME280;65471;55.908;37.880;2024-02-14T05:31:43;101056.13;;;-14.87;92.81
76590;BME280;65471;55.908;37.880;2024-02-14T05:34:11;101033.97;;;-15.00;92.72
76590;BME280;65471;55.908;37.880;2024-02-14T05:36:38;101052.69;;;-14.87;92.77
76590;BME280;65471;55.908;37.880;2024-02-14T05:39:05;101053.47;;;-14.84;92.82
76590;BME280;65471;55.908;37.880;2024-02-14T05:41:33;101055.97;;;-14.81;92.83
76590;BME280;65471;55.908;37.880;2024-02-14T05:44:01;101052.50;;;-14.80;92.73
76590;BME280;65471;55.908;37.880;2024-02-14T05:46:28;101067.16;;;-14.77;92.47
76590;BME280;65471;55.908;37.880;2024-02-14T05:48:55;101069.78;;;-14.79;92.67
76590;BME280;65471;55.908;37.880;2024-02-14T05:51:24;101065.34;;;-14.75;92.80
76590;BME280;65471;55.908;37.880;2024-02-14T05:53:51;101060.94;;;-14.71;92.96
76590;BME280;65471;55.908;37.880;2024-02-14T05:56:18;101071.34;;;-14.71;92.77
76590;BME280;65471;55.908;37.880;2024-02-14T05:58:45;101072.97;;;-14.67;92.74
76590;BME280;65471;55.908;37.880;2024-02-14T06:01:12;101076.41;;;-14.67;92.95
76590;BME280;65471;55.908;37.880;2024-02-14T06:03:41;101080.56;;;-14.61;92.92
76590;BME280;65471;55.908;37.880;2024-02-14T06:06:08;101078.75;;;-14.57;92.96
76590;BME280;65471;55.908;37.880;2024-02-14T06:08:36;101092.56;;;-14.57;93.12
76590;BME280;65471;55.908;37.880;2024-02-14T06:11:03;101086.41;;;-14.53;93.00
76590;BME280;65471;55.908;37.880;2024-02-14T06:13:30;101081.97;;;-14.49;93.17
76590;BME280;65471;55.908;37.880;2024-02-14T06:15:57;101088.81;;;-14.45;93.01
76590;BME280;65471;55.908;37.880;2024-02-14T06:18:24;101086.19;;;-14.45;93.01
76590;BME280;65471;55.908;37.880;2024-02-14T06:20:51;101083.66;;;-14.47;93.09
76590;BME280;65471;55.908;37.880;2024-02-14T06:23:18;101065.75;;;-14.57;92.90
76590;BME280;65471;55.908;37.880;2024-02-14T06:25:46;101080.88;;;-14.39;93.27
76590;BME280;65471;55.908;37.880;2024-02-14T06:28:14;101084.19;;;-14.34;93.21
76590;BME280;65471;55.908;37.880;2024-02-14T06:30:41;101082.31;;;-14.29;93.14
76590;BME280;65471;55.908;37.880;2024-02-14T06:33:08;101074.34;;;-14.23;93.06
76590;BME280;65471;55.908;37.880;2024-02-14T06:35:35;101076.03;;;-14.20;93.22
76590;BME280;65471;55.908;37.880;2024-02-14T06:38:03;101082.06;;;-14.19;93.13
76590;BME280;65471;55.908;37.880;2024-02-14T06:40:32;101077.66;;;-14.16;93.21
76590;BME280;65471;55.908;37.880;2024-02-14T06:43:00;101076.75;;;-14.15;92.96
76590;BME280;65471;55.908;37.880;2024-02-14T06:45:30;101075.09;;;-14.17;93.37
76590;BME280;65471;55.908;37.880;2024-02-14T06:48:17;101084.28;;;-14.06;93.27
76590;BME280;65471;55.908;37.880;2024-02-14T06:50:52;101077.09;;;-13.96;93.65
76590;BME280;65471;55.908;37.880;2024-02-14T06:53:19;101084.72;;;-13.90;93.45
76590;BME280;65471;55.908;37.880;2024-02-14T06:55:46;101075.88;;;-13.84;93.68
76590;BME280;65471;55.908;37.880;2024-02-14T06:58:14;101087.84;;;-13.78;93.56
76590;BME280;65471;55.908;37.880;2024-02-14T07:00:41;101085.31;;;-13.80;93.62
76590;BME280;65471;55.908;37.880;2024-02-14T07:03:09;101086.03;;;-13.75;93.61
76590;BME280;65471;55.908;37.880;2024-02-14T07:05:37;101085.84;;;-13.68;93.94
76590;BME280;65471;55.908;37.880;2024-02-14T07:08:04;101090.84;;;-13.61;93.90
76590;BME280;65471;55.908;37.880;2024-02-14T07:10:31;101086.25;;;-13.52;93.96
76590;BME280;65471;55.908;37.880;2024-02-14T07:12:59;101092.03;;;-13.43;94.06
76590;BME280;65471;55.908;37.880;2024-02-14T07:15:26;101085.91;;;-13.40;94.37
76590;BME280;65471;55.908;37.880;2024-02-14T07:17:56;101053.25;;;-13.50;94.37
76590;BME280;65471;55.908;37.880;2024-02-14T07:20:25;101101.00;;;-13.25;94.42
76590;BME280;65471;55.908;37.880;2024-02-14T07:22:56;101090.41;;;-13.19;94.34
76590;BME280;65471;55.908;37.880;2024-02-14T07:25:24;101092.03;;;-13.14;94.37
76590;BME280;65471;55.908;37.880;2024-02-14T07:27:51;101085.88;;;-13.12;94.50
76590;BME280;65471;55.908;37.880;2024-02-14T07:30:19;101095.47;;;-13.14;94.42
76590;BME280;65471;55.908;37.880;2024-02-14T07:32:46;101090.25;;;-13.14;94.12
76590;BME280;65471;55.908;37.880;2024-02-14T07:35:14;101097.78;;;-13.05;94.39
76590;BME280;65471;55.908;37.880;2024-02-14T07:37:41;101108.81;;;-12.96;94.58
76590;BME280;65471;55.908;37.880;2024-02-14T07:40:10;101103.47;;;-12.92;94.57
76590;BME280;65471;55.908;37.880;2024-02-14T07:42:59;101099.75;;;-12.85;94.56
76590;BME280;65471;55.908;37.880;2024-02-14T07:45:27;101102.25;;;-12.81;94.62
76590;BME280;65471;55.908;37.880;2024-02-14T07:47:54;101101.22;;;-12.76;94.68
76590;BME280;65471;55.908;37.880;2024-02-14T07:50:21;101104.59;;;-12.72;94.76
76590;BME280;65471;55.908;37.880;2024-02-14T07:52:48;101098.38;;;-12.68;94.95
76590;BME280;65471;55.908;37.880;2024-02-14T07:55:15;101101.63;;;-12.61;94.62
76590;BME280;65471;55.908;37.880;2024-02-14T07:57:44;101090.13;;;-12.56;95.10
76590;BME280;65471;55.908;37.880;2024-02-14T08:00:12;101089.84;;;-12.46;94.88
76590;BME280;65471;55.908;37.880;2024-02-14T08:02:41;101098.25;;;-12.38;94.94
76590;BME280;65471;55.908;37.880;2024-02-14T08:05:08;101094.56;;;-12.33;94.99
76590;BME280;65471;55.908;37.880;2024-02-14T08:07:35;101099.53;;;-12.25;95.05
76590;BME280;65471;55.908;37.880;2024-02-14T08:10:03;101082.25;;;-12.27;95.40
76590;BME280;65471;55.908;37.880;2024-02-14T08:12:31;101098.41;;;-12.18;95.28
76590;BME280;65471;55.908;37.880;2024-02-14T08:14:59;101099.19;;;-12.16;95.17
76590;BME280;65471;55.908;37.880;2024-02-14T08:17:31;101100.66;;;-12.07;95.24
76590;BME280;65471;55.908;37.880;2024-02-14T08:20:00;101100.38;;;-11.99;95.30
76590;BME280;65471;55.908;37.880;2024-02-14T08:22:29;101101.06;;;-11.94;95.29
76590;BME280;65471;55.908;37.880;2024-02-14T08:24:56;101106.75;;;-11.84;95.36
76590;BME280;65471;55.908;37.880;2024-02-14T08:27:23;101106.59;;;-11.80;95.33
76590;BME280;65471;55.908;37.880;2024-02-14T08:29:50;101109.75;;;-11.71;95.86
76590;BME280;65471;55.908;37.880;2024-02-14T08:32:17;101109.56;;;-11.65;95.53
76590;BME280;65471;55.908;37.880;2024-02-14T08:34:44;101115.28;;;-11.55;96.02
76590;BME280;65471;55.908;37.880;2024-02-14T08:37:11;101086.75;;;-11.60;95.77
76590;BME280;65471;55.908;37.880;2024-02-14T08:39:39;101112.91;;;-11.38;96.04
76590;BME280;65471;55.908;37.880;2024-02-14T08:42:07;101101.38;;;-11.32;96.24
76590;BME280;65471;55.908;37.880;2024-02-14T08:44:35;101118.25;;;-11.19;96.34
76590;BME280;65471;55.908;37.880;2024-02-14T08:47:04;101111.88;;;-11.12;96.13
76590;BME280;65471;55.908;37.880;2024-02-14T08:49:31;101103.84;;;-11.05;96.14
76590;BME280;65471;55.908;37.880;2024-02-14T08:51:59;101109.00;;;-11.04;96.54
76590;BME280;65471;55.908;37.880;2024-02-14T08:54:26;101109.47;;;-10.94;96.46
76590;BME280;65471;55.908;37.880;2024-02-14T08:56:55;101101.41;;;-10.88;96.33
76590;BME280;65471;55.908;37.880;2024-02-14T08:59:25;101112.94;;;-10.71;96.75
76590;BME280;65471;55.908;37.880;2024-02-14T09:01:53;101115.50;;;-10.70;96.82
76590;BME280;65471;55.908;37.880;2024-02-14T09:04:20;101108.06;;;-10.81;96.86
76590;BME280;65471;55.908;37.880;2024-02-14T09:06:47;101115.44;;;-10.68;96.97
76590;BME280;65471;55.908;37.880;2024-02-14T09:09:15;101126.47;;;-10.62;96.98
76590;BME280;65471;55.908;37.880;2024-02-14T09:11:42;101127.00;;;-10.53;96.72
76590;BME280;65471;55.908;37.880;2024-02-14T09:14:09;101115.63;;;-10.52;96.77
76590;BME280;65471;55.908;37.880;2024-02-14T09:16:37;101117.84;;;-10.43;97.12
76590;BME280;65471;55.908;37.880;2024-02-14T09:19:05;101119.28;;;-10.34;96.97
76590;BME280;65471;55.908;37.880;2024-02-14T09:21:36;101081.47;;;-10.48;97.25
76590;BME280;65471;55.908;37.880;2024-02-14T09:24:03;101120.06;;;-10.13;97.66
76590;BME280;65471;55.908;37.880;2024-02-14T09:26:31;101127.47;;;-10.02;97.46
76590;BME280;65471;55.908;37.880;2024-02-14T09:28:58;101123.31;;;-9.88;97.54
76590;BME280;65471;55.908;37.880;2024-02-14T09:31:25;101116.78;;;-9.77;97.33
76590;BME280;65471;55.908;37.880;2024-02-14T09:33:52;101127.97;;;-9.74;98.09
76590;BME280;65471;55.908;37.880;2024-02-14T09:36:24;101119.78;;;-9.66;97.63
76590;BME280;65471;55.908;37.880;2024-02-14T09:38:51;101119.44;;;-9.58;97.60
76590;BME280;65471;55.908;37.880;2024-02-14T09:41:22;101118.81;;;-9.44;98.11
76590;BME280;65471;55.908;37.880;2024-02-14T09:43:50;101113.13;;;-9.35;98.24
76590;BME280;65471;55.908;37.880;2024-02-14T09:46:17;101113.84;;;-9.31;97.76
76590;BME280;65471;55.908;37.880;2024-02-14T09:48:45;101122.66;;;-9.13;98.49
76590;BME280;65471;55.908;37.880;2024-02-14T09:51:13;101116.81;;;-8.64;98.97
76590;BME280;65471;55.908;37.880;2024-02-14T09:53:41;101097.38;;;-7.41;100.00
76590;BME280;65471;55.908;37.880;2024-02-14T09:56:10;101114.38;;;-5.93;100.00
76590;BME280;65471;55.908;37.880;2024-02-14T09:58:40;101112.91;;;-5.68;100.00
76590;BME280;65471;55.908;37.880;2024-02-14T10:01:08;101115.81;;;-5.44;100.00
76590;BME280;65471;55.908;37.880;2024-02-14T10:03:35;101113.25;;;-5.60;100.00
76590;BME280;65471;55.908;37.880;2024-02-14T10:06:03;101111.50;;;-5.60;100.00
76590;BME280;65471;55.908;37.880;2024-02-14T10:08:31;101107.59;;;-6.12;100.00
76590;BME280;65471;55.908;37.880;2024-02-14T10:10:59;101117.09;;;-6.70;100.00
76590;BME280;65471;55.908;37.880;2024-02-14T10:13:27;101120.00;;;-6.90;100.00
76590;BME280;65471;55.908;37.880;2024-02-14T10:15:56;101091.75;;;-7.03;100.00
76590;BME280;65471;55.908;37.880;2024-02-14T10:18:23;101114.50;;;-7.02;100.00
76590;BME280;65471;55.908;37.880;2024-02-14T10:20:56;101112.19;;;-6.76;100.00
76590;BME280;65471;55.908;37.880;2024-02-14T10:23:24;101122.13;;;-6.97;100.00
76590;BME280;65471;55.908;37.880;2024-02-14T10:25:54;101113.63;;;-6.70;100.00
76590;BME280;65471;55.908;37.880;2024-02-14T10:28:23;101103.44;;;-6.61;100.00
76590;BME280;65471;55.908;37.880;2024-02-14T10:30:59;101112.78;;;-6.71;100.00
76590;BME280;65471;55.908;37.880;2024-02-14T10:33:29;101123.28;;;-6.87;100.00
76590;BME280;65471;55.908;37.880;2024-02-14T10:35:57;101104.63;;;-7.46;99.80
76590;BME280;65471;55.908;37.880;2024-02-14T10:38:32;101115.50;;;-7.70;99.56
76590;BME280;65471;55.908;37.880;2024-02-14T10:41:02;101119.63;;;-7.82;100.00
76590;BME280;65471;55.908;37.880;2024-02-14T10:43:33;101120.63;;;-7.84;99.37
76590;BME280;65471;55.908;37.880;2024-02-14T10:46:05;101117.75;;;-7.80;99.80
76590;BME280;65471;55.908;37.880;2024-02-14T10:48:37;101126.38;;;-7.93;99.80
76590;BME280;65471;55.908;37.880;2024-02-14T10:51:08;101120.59;;;-8.00;99.44
76590;BME280;65471;55.908;37.880;2024-02-14T10:53:39;101118.88;;;-8.01;98.68
76590;BME280;65471;55.908;37.880;2024-02-14T10:56:17;101113.25;;;-7.93;99.13
76590;BME280;65471;55.908;37.880;2024-02-14T10:58:47;101121.41;;;-8.00;99.22
76590;BME280;65471;55.908;37.880;2024-02-14T11:01:14;101119.59;;;-8.15;98.89
76590;BME280;65471;55.908;37.880;2024-02-14T11:03:47;101105.06;;;-8.22;98.47
76590;BME280;65471;55.908;37.880;2024-02-14T11:06:16;101107.25;;;-8.13;98.62
76590;BME280;65471;55.908;37.880;2024-02-14T11:09:03;101125.63;;;-8.13;99.31
76590;BME280;65471;55.908;37.880;2024-02-14T11:11:37;101111.94;;;-8.20;98.61
76590;BME280;65471;55.908;37.880;2024-02-14T11:14:06;101098.91;;;-8.21;98.61
76590;BME280;65471;55.908;37.880;2024-02-14T11:16:33;101121.19;;;-8.12;98.79
76590;BME280;65471;55.908;37.880;2024-02-14T11:19:10;101118.75;;;-8.16;98.57
76590;BME280;65471;55.908;37.880;2024-02-14T11:21:46;101121.75;;;-8.23;99.09
76590;BME280;65471;55.908;37.880;2024-02-14T11:24:15;101117.44;;;-8.24;98.35
76590;BME280;65471;55.908;37.880;2024-02-14T11:26:47;101124.38;;;-8.23;98.82
76590;BME280;65471;55.908;37.880;2024-02-14T11:29:15;101125.63;;;-8.13;98.67
76590;BME280;65471;55.908;37.880;2024-02-14T11:31:57;101124.38;;;-8.06;98.55
76590;BME280;65471;55.908;37.880;2024-02-14T11:34:26;101127.84;;;-8.05;99.40
76590;BME280;65471;55.908;37.880;2024-02-14T11:36:54;101096.13;;;-8.18;99.07
76590;BME280;65471;55.908;37.880;2024-02-14T11:39:21;101115.56;;;-8.05;99.11
76590;BME280;65471;55.908;37.880;2024-02-14T11:41:48;101119.75;;;-8.01;98.87
76590;BME280;65471;55.908;37.880;2024-02-14T11:44:15;101119.28;;;-8.09;99.33
76590;BME280;65471;55.908;37.880;2024-02-14T11:46:42;101111.25;;;-8.06;98.34
76590;BME280;65471;55.908;37.880;2024-02-14T11:49:10;101108.38;;;-8.01;98.70
76590;BME280;65471;55.908;37.880;2024-02-14T11:51:37;101114.25;;;-7.96;99.32
76590;BME280;65471;55.908;37.880;2024-02-14T11:54:05;101115.66;;;-8.06;98.83
76590;BME280;65471;55.908;37.880;2024-02-14T11:56:36;101113.81;;;-8.22;98.91
76590;BME280;65471;55.908;37.880;2024-02-14T11:59:07;101109.63;;;-8.26;98.26
76590;BME280;65471;55.908;37.880;2024-02-14T12:01:36;101110.78;;;-8.32;98.96
76590;BME280;65471;55.908;37.880;2024-02-14T12:04:06;101103.75;;;-8.31;98.03
76590;BME280;65471;55.908;37.880;2024-02-14T12:06:36;101095.47;;;-8.57;98.02
76590;BME280;65471;55.908;37.880;2024-02-14T12:09:05;101114.13;;;-8.45;97.65
76590;BME280;65471;55.908;37.880;2024-02-14T12:11:46;101117.75;;;-8.48;98.06
76590;BME280;65471;55.908;37.880;2024-02-14T12:14:13;101116.00;;;-8.47;97.91
76590;BME280;65471;55.908;37.880;2024-02-14T12:16:41;101116.22;;;-8.52;98.31
76590;BME280;65471;55.908;37.880;2024-02-14T12:19:13;101092.75;;;-8.73;98.10
76590;BME280;65471;55.908;37.880;2024-02-14T12:21:43;101117.75;;;-8.65;97.92
76590;BME280;65471;55.908;37.880;2024-02-14T12:24:12;101115.19;;;-8.67;98.19
76590;BME280;65471;55.908;37.880;2024-02-14T12:26:42;101117.41;;;-8.77;98.00
76590;BME280;65471;55.908;37.880;2024-02-14T12:29:13;101109.69;;;-8.80;98.29
76590;BME280;65471;55.908;37.880;2024-02-14T12:31:40;101108.94;;;-8.82;98.11
76590;BME280;65471;55.908;37.880;2024-02-14T12:34:11;101116.09;;;-8.86;98.27
76590;BME280;65471;55.908;37.880;2024-02-14T12:36:39;101120.19;;;-8.80;97.61
76590;BME280;65471;55.908;37.880;2024-02-14T12:39:07;101114.94;;;-8.80;97.56
76590;BME280;65471;55.908;37.880;2024-02-14T12:41:36;101123.78;;;-8.82;97.58
76590;BME280;65471;55.908;37.880;2024-02-14T12:44:07;101122.16;;;-8.85;97.80
76590;BME280;65471;55.908;37.880;2024-02-14T12:46:34;101123.94;;;-8.86;97.81